Terminal Aerodrome Forecast
Issued by NWS

Home | Current Version | Previous Version | Text Only | Print | Product List | Glossary Off
Versions: 1 2 3 4 5 6 7 8 9 10 11 12 13 14

000
FTUS43 KTOP 290520
TAFFOE
TAF
KFOE 290520Z 2906/3006 27007KT P6SM FEW100
     FM290700 35009KT P6SM VCTS SCT070CB
      TEMPO 2908/2911 36012G25KT 4SM TSRA BR BKN040CB
     FM291300 03009KT P6SM SCT040 BKN150=

USA.gov is the U.S. government's official web portal to all federal, state and local government web resources and services.